sensor_id;sensor_type;location;lat;lon;timestamp;P1;durP1;ratioP1;P2;durP2;ratioP2
19151;SDS011;9708;53.114;9.388;2023-07-24T00:00:58;2.90;;;1.70;;
19151;SDS011;9708;53.114;9.388;2023-07-24T00:03:25;2.38;;;1.65;;
19151;SDS011;9708;53.114;9.388;2023-07-24T00:05:53;3.22;;;1.70;;
19151;SDS011;9708;53.114;9.388;2023-07-24T00:08:24;2.10;;;1.58;;
19151;SDS011;9708;53.114;9.388;2023-07-24T00:10:51;1.98;;;1.80;;
19151;SDS011;9708;53.114;9.388;2023-07-24T00:13:18;1.60;;;1.50;;
19151;SDS011;9708;53.114;9.388;2023-07-24T00:15:44;1.83;;;1.33;;
19151;SDS011;9708;53.114;9.388;2023-07-24T00:18:11;3.17;;;1.98;;
19151;SDS011;9708;53.114;9.388;2023-07-24T00:20:38;4.03;;;1.60;;
19151;SDS011;9708;53.114;9.388;2023-07-24T00:23:06;2.00;;;1.80;;
19151;SDS011;9708;53.114;9.388;2023-07-24T00:25:33;2.08;;;1.63;;
19151;SDS011;9708;53.114;9.388;2023-07-24T00:28:00;1.60;;;1.27;;
19151;SDS011;9708;53.114;9.388;2023-07-24T00:30:26;1.70;;;1.40;;
19151;SDS011;9708;53.114;9.388;2023-07-24T00:32:53;2.08;;;1.52;;
19151;SDS011;9708;53.114;9.388;2023-07-24T00:35:20;3.53;;;1.65;;
19151;SDS011;9708;53.114;9.388;2023-07-24T00:37:47;1.65;;;1.40;;
19151;SDS011;9708;53.114;9.388;2023-07-24T00:40:15;5.20;;;1.83;;
19151;SDS011;9708;53.114;9.388;2023-07-24T00:42:45;1.73;;;1.60;;
19151;SDS011;9708;53.114;9.388;2023-07-24T00:45:13;3.05;;;2.10;;
19151;SDS011;9708;53.114;9.388;2023-07-24T00:47:40;3.17;;;2.20;;
19151;SDS011;9708;53.114;9.388;2023-07-24T00:50:07;1.83;;;1.73;;
19151;SDS011;9708;53.114;9.388;2023-07-24T00:52:34;2.97;;;2.00;;
19151;SDS011;9708;53.114;9.388;2023-07-24T00:55:01;2.25;;;2.00;;
19151;SDS011;9708;53.114;9.388;2023-07-24T00:57:30;2.38;;;1.88;;
19151;SDS011;9708;53.114;9.388;2023-07-24T00:59:57;2.38;;;1.60;;
19151;SDS011;9708;53.114;9.388;2023-07-24T01:02:24;5.10;;;2.60;;
19151;SDS011;9708;53.114;9.388;2023-07-24T01:04:52;1.88;;;1.75;;
19151;SDS011;9708;53.114;9.388;2023-07-24T01:07:19;3.85;;;1.90;;
19151;SDS011;9708;53.114;9.388;2023-07-24T01:09:46;2.17;;;1.98;;
19151;SDS011;9708;53.114;9.388;2023-07-24T01:12:17;2.63;;;1.80;;
19151;SDS011;9708;53.114;9.388;2023-07-24T01:14:52;2.38;;;1.70;;
19151;SDS011;9708;53.114;9.388;2023-07-24T01:17:24;3.38;;;1.98;;
19151;SDS011;9708;53.114;9.388;2023-07-24T01:19:54;1.92;;;1.73;;
19151;SDS011;9708;53.114;9.388;2023-07-24T01:22:25;2.08;;;1.70;;
19151;SDS011;9708;53.114;9.388;2023-07-24T01:25:04;5.72;;;1.88;;
19151;SDS011;9708;53.114;9.388;2023-07-24T01:27:41;2.83;;;1.92;;
19151;SDS011;9708;53.114;9.388;2023-07-24T01:30:08;2.70;;;1.60;;
19151;SDS011;9708;53.114;9.388;2023-07-24T01:32:35;2.38;;;1.85;;
19151;SDS011;9708;53.114;9.388;2023-07-24T01:35:03;1.67;;;1.58;;
19151;SDS011;9708;53.114;9.388;2023-07-24T01:37:30;2.92;;;1.88;;
19151;SDS011;9708;53.114;9.388;2023-07-24T01:39:58;2.75;;;1.90;;
19151;SDS011;9708;53.114;9.388;2023-07-24T01:42:25;2.63;;;1.60;;
19151;SDS011;9708;53.114;9.388;2023-07-24T01:44:54;2.20;;;1.67;;
19151;SDS011;9708;53.114;9.388;2023-07-24T01:47:21;3.35;;;1.80;;
19151;SDS011;9708;53.114;9.388;2023-07-24T01:49:48;3.15;;;2.05;;
19151;SDS011;9708;53.114;9.388;2023-07-24T01:52:15;2.35;;;2.15;;
19151;SDS011;9708;53.114;9.388;2023-07-24T01:54:42;4.05;;;2.60;;
19151;SDS011;9708;53.114;9.388;2023-07-24T01:57:09;1.75;;;1.60;;
19151;SDS011;9708;53.114;9.388;2023-07-24T01:59:35;2.10;;;1.60;;
19151;SDS011;9708;53.114;9.388;2023-07-24T02:02:04;3.38;;;1.75;;
19151;SDS011;9708;53.114;9.388;2023-07-24T02:04:31;1.52;;;1.42;;
19151;SDS011;9708;53.114;9.388;2023-07-24T02:06:58;2.17;;;1.60;;
19151;SDS011;9708;53.114;9.388;2023-07-24T02:09:24;1.80;;;1.50;;
19151;SDS011;9708;53.114;9.388;2023-07-24T02:11:51;4.88;;;1.63;;
19151;SDS011;9708;53.114;9.388;2023-07-24T02:14:18;1.92;;;1.80;;
19151;SDS011;9708;53.114;9.388;2023-07-24T02:16:46;2.17;;;1.80;;
19151;SDS011;9708;53.114;9.388;2023-07-24T02:19:14;1.70;;;1.60;;
19151;SDS011;9708;53.114;9.388;2023-07-24T02:21:41;1.95;;;1.55;;
19151;SDS011;9708;53.114;9.388;2023-07-24T02:24:07;2.15;;;1.75;;
19151;SDS011;9708;53.114;9.388;2023-07-24T02:26:34;4.20;;;2.22;;
19151;SDS011;9708;53.114;9.388;2023-07-24T02:29:01;1.98;;;1.60;;
19151;SDS011;9708;53.114;9.388;2023-07-24T02:31:28;2.70;;;2.15;;
19151;SDS011;9708;53.114;9.388;2023-07-24T02:33:54;2.67;;;2.03;;
19151;SDS011;9708;53.114;9.388;2023-07-24T02:36:23;2.72;;;1.90;;
19151;SDS011;9708;53.114;9.388;2023-07-24T02:38:49;2.20;;;1.80;;
19151;SDS011;9708;53.114;9.388;2023-07-24T02:41:16;2.20;;;1.40;;
19151;SDS011;9708;53.114;9.388;2023-07-24T02:43:43;3.33;;;1.98;;
19151;SDS011;9708;53.114;9.388;2023-07-24T02:46:10;2.67;;;1.80;;
19151;SDS011;9708;53.114;9.388;2023-07-24T02:48:36;3.25;;;2.20;;
19151;SDS011;9708;53.114;9.388;2023-07-24T02:51:03;3.22;;;2.03;;
19151;SDS011;9708;53.114;9.388;2023-07-24T02:53:31;3.53;;;1.95;;
19151;SDS011;9708;53.114;9.388;2023-07-24T02:55:58;2.10;;;1.88;;
19151;SDS011;9708;53.114;9.388;2023-07-24T02:58:27;3.35;;;2.22;;
19151;SDS011;9708;53.114;9.388;2023-07-24T03:00:54;2.92;;;2.17;;
19151;SDS011;9708;53.114;9.388;2023-07-24T03:03:28;2.47;;;1.90;;
19151;SDS011;9708;53.114;9.388;2023-07-24T03:05:54;3.00;;;2.15;;
19151;SDS011;9708;53.114;9.388;2023-07-24T03:08:21;3.65;;;2.40;;
19151;SDS011;9708;53.114;9.388;2023-07-24T03:10:49;2.83;;;1.88;;
19151;SDS011;9708;53.114;9.388;2023-07-24T03:13:16;3.55;;;2.05;;
19151;SDS011;9708;53.114;9.388;2023-07-24T03:15:43;5.65;;;2.78;;
19151;SDS011;9708;53.114;9.388;2023-07-24T03:18:17;2.15;;;1.95;;
19151;SDS011;9708;53.114;9.388;2023-07-24T03:20:44;4.05;;;2.47;;
19151;SDS011;9708;53.114;9.388;2023-07-24T03:23:10;3.22;;;2.30;;
19151;SDS011;9708;53.114;9.388;2023-07-24T03:25:37;3.90;;;2.70;;
19151;SDS011;9708;53.114;9.388;2023-07-24T03:28:05;2.92;;;1.83;;
19151;SDS011;9708;53.114;9.388;2023-07-24T03:30:32;6.32;;;3.03;;
19151;SDS011;9708;53.114;9.388;2023-07-24T03:33:01;5.78;;;2.42;;
19151;SDS011;9708;53.114;9.388;2023-07-24T03:35:28;2.72;;;2.00;;
19151;SDS011;9708;53.114;9.388;2023-07-24T03:37:54;2.42;;;1.80;;
19151;SDS011;9708;53.114;9.388;2023-07-24T03:40:21;2.55;;;1.50;;
19151;SDS011;9708;53.114;9.388;2023-07-24T03:42:48;2.50;;;1.80;;
19151;SDS011;9708;53.114;9.388;2023-07-24T03:45:16;2.95;;;1.85;;
19151;SDS011;9708;53.114;9.388;2023-07-24T03:47:43;2.08;;;1.88;;
19151;SDS011;9708;53.114;9.388;2023-07-24T03:50:10;1.83;;;1.60;;
19151;SDS011;9708;53.114;9.388;2023-07-24T03:52:37;1.85;;;1.73;;
19151;SDS011;9708;53.114;9.388;2023-07-24T03:55:04;3.72;;;2.28;;
19151;SDS011;9708;53.114;9.388;2023-07-24T03:57:32;2.97;;;1.95;;
19151;SDS011;9708;53.114;9.388;2023-07-24T03:59:59;1.60;;;1.50;;
19151;SDS011;9708;53.114;9.388;2023-07-24T04:02:28;3.08;;;1.88;;
19151;SDS011;9708;53.114;9.388;2023-07-24T04:04:54;1.63;;;1.48;;
19151;SDS011;9708;53.114;9.388;2023-07-24T04:07:21;2.67;;;1.80;;
19151;SDS011;9708;53.114;9.388;2023-07-24T04:09:48;3.60;;;1.55;;
19151;SDS011;9708;53.114;9.388;2023-07-24T04:12:15;2.38;;;1.88;;
19151;SDS011;9708;53.114;9.388;2023-07-24T04:14:41;3.00;;;1.95;;
19151;SDS011;9708;53.114;9.388;2023-07-24T04:17:08;1.98;;;1.73;;
19151;SDS011;9708;53.114;9.388;2023-07-24T04:19:36;2.65;;;2.03;;
19151;SDS011;9708;53.114;9.388;2023-07-24T04:22:03;1.77;;;1.63;;
19151;SDS011;9708;53.114;9.388;2023-07-24T04:24:30;2.97;;;1.90;;
19151;SDS011;9708;53.114;9.388;2023-07-24T04:26:57;2.50;;;2.10;;
19151;SDS011;9708;53.114;9.388;2023-07-24T04:29:23;2.03;;;1.60;;
19151;SDS011;9708;53.114;9.388;2023-07-24T04:31:51;1.95;;;1.80;;
19151;SDS011;9708;53.114;9.388;2023-07-24T04:34:18;1.23;;;1.13;;
19151;SDS011;9708;53.114;9.388;2023-07-24T04:36:46;4.47;;;1.88;;
19151;SDS011;9708;53.114;9.388;2023-07-24T04:39:13;1.90;;;1.52;;
19151;SDS011;9708;53.114;9.388;2023-07-24T04:41:40;2.25;;;1.60;;
19151;SDS011;9708;53.114;9.388;2023-07-24T04:44:06;1.42;;;1.23;;
19151;SDS011;9708;53.114;9.388;2023-07-24T04:46:33;3.72;;;2.15;;
19151;SDS011;9708;53.114;9.388;2023-07-24T04:49:00;1.83;;;1.25;;
19151;SDS011;9708;53.114;9.388;2023-07-24T04:51:27;1.88;;;1.45;;
19151;SDS011;9708;53.114;9.388;2023-07-24T04:53:55;2.35;;;1.50;;
19151;SDS011;9708;53.114;9.388;2023-07-24T04:56:22;3.10;;;1.83;;
19151;SDS011;9708;53.114;9.388;2023-07-24T04:58:48;2.25;;;1.65;;
19151;SDS011;9708;53.114;9.388;2023-07-24T05:01:15;1.83;;;1.17;;
19151;SDS011;9708;53.114;9.388;2023-07-24T05:03:42;2.33;;;1.88;;
19151;SDS011;9708;53.114;9.388;2023-07-24T05:06:09;3.13;;;1.33;;
19151;SDS011;9708;53.114;9.388;2023-07-24T05:08:35;1.20;;;1.10;;
19151;SDS011;9708;53.114;9.388;2023-07-24T05:11:03;1.35;;;1.20;;
19151;SDS011;9708;53.114;9.388;2023-07-24T05:13:30;2.13;;;1.20;;
19151;SDS011;9708;53.114;9.388;2023-07-24T05:15:57;1.40;;;1.25;;
19151;SDS011;9708;53.114;9.388;2023-07-24T05:18:24;1.75;;;1.35;;
19151;SDS011;9708;53.114;9.388;2023-07-24T05:20:51;1.85;;;1.38;;
19151;SDS011;9708;53.114;9.388;2023-07-24T05:23:18;2.17;;;1.80;;
19151;SDS011;9708;53.114;9.388;2023-07-24T05:25:45;1.83;;;1.65;;
19151;SDS011;9708;53.114;9.388;2023-07-24T05:28:13;1.40;;;1.27;;
19151;SDS011;9708;53.114;9.388;2023-07-24T05:30:39;1.88;;;1.65;;
19151;SDS011;9708;53.114;9.388;2023-07-24T05:33:06;1.77;;;1.27;;
19151;SDS011;9708;53.114;9.388;2023-07-24T05:35:33;4.13;;;1.52;;
19151;SDS011;9708;53.114;9.388;2023-07-24T05:38:00;1.27;;;1.17;;
19151;SDS011;9708;53.114;9.388;2023-07-24T05:40:27;1.67;;;0.95;;
19151;SDS011;9708;53.114;9.388;2023-07-24T05:42:54;1.20;;;1.10;;
19151;SDS011;9708;53.114;9.388;2023-07-24T05:45:22;2.30;;;1.42;;
19151;SDS011;9708;53.114;9.388;2023-07-24T05:47:49;1.90;;;1.27;;
19151;SDS011;9708;53.114;9.388;2023-07-24T05:50:16;1.95;;;1.40;;
19151;SDS011;9708;53.114;9.388;2023-07-24T05:52:42;2.72;;;1.42;;
19151;SDS011;9708;53.114;9.388;2023-07-24T05:55:09;1.50;;;1.40;;
19151;SDS011;9708;53.114;9.388;2023-07-24T05:57:37;2.70;;;2.10;;
19151;SDS011;9708;53.114;9.388;2023-07-24T06:00:04;1.88;;;1.40;;
19151;SDS011;9708;53.114;9.388;2023-07-24T06:02:33;2.20;;;2.00;;
19151;SDS011;9708;53.114;9.388;2023-07-24T06:05:00;2.72;;;1.77;;
19151;SDS011;9708;53.114;9.388;2023-07-24T06:07:27;3.22;;;2.17;;
19151;SDS011;9708;53.114;9.388;2023-07-24T06:09:53;2.10;;;1.73;;
19151;SDS011;9708;53.114;9.388;2023-07-24T06:12:20;2.75;;;2.20;;
19151;SDS011;9708;53.114;9.388;2023-07-24T06:14:47;16.75;;;9.38;;
19151;SDS011;9708;53.114;9.388;2023-07-24T06:17:14;3.63;;;2.95;;
19151;SDS011;9708;53.114;9.388;2023-07-24T06:19:42;2.67;;;2.47;;
19151;SDS011;9708;53.114;9.388;2023-07-24T06:22:09;4.18;;;2.35;;
19151;SDS011;9708;53.114;9.388;2023-07-24T06:24:35;3.05;;;2.40;;
19151;SDS011;9708;53.114;9.388;2023-07-24T06:27:03;3.25;;;2.78;;
19151;SDS011;9708;53.114;9.388;2023-07-24T06:29:31;2.33;;;2.13;;
19151;SDS011;9708;53.114;9.388;2023-07-24T06:31:58;3.95;;;3.30;;
19151;SDS011;9708;53.114;9.388;2023-07-24T06:34:25;3.20;;;2.90;;
19151;SDS011;9708;53.114;9.388;2023-07-24T06:36:53;5.88;;;2.63;;
19151;SDS011;9708;53.114;9.388;2023-07-24T06:39:20;2.97;;;2.58;;
19151;SDS011;9708;53.114;9.388;2023-07-24T06:41:47;3.63;;;2.83;;
19151;SDS011;9708;53.114;9.388;2023-07-24T06:44:14;3.40;;;2.58;;
19151;SDS011;9708;53.114;9.388;2023-07-24T06:46:40;4.25;;;2.88;;
19151;SDS011;9708;53.114;9.388;2023-07-24T06:49:07;4.35;;;2.97;;
19151;SDS011;9708;53.114;9.388;2023-07-24T06:51:35;4.70;;;3.05;;
19151;SDS011;9708;53.114;9.388;2023-07-24T06:54:03;6.75;;;4.80;;
19151;SDS011;9708;53.114;9.388;2023-07-24T06:56:30;4.07;;;2.92;;
19151;SDS011;9708;53.114;9.388;2023-07-24T06:58:57;2.42;;;2.22;;
19151;SDS011;9708;53.114;9.388;2023-07-24T07:01:24;3.15;;;2.80;;
19151;SDS011;9708;53.114;9.388;2023-07-24T07:03:51;3.33;;;2.70;;
19151;SDS011;9708;53.114;9.388;2023-07-24T07:06:17;2.80;;;2.55;;
19151;SDS011;9708;53.114;9.388;2023-07-24T07:08:44;4.03;;;2.83;;
19151;SDS011;9708;53.114;9.388;2023-07-24T07:11:13;3.50;;;3.13;;
19151;SDS011;9708;53.114;9.388;2023-07-24T07:13:39;4.45;;;3.13;;
19151;SDS011;9708;53.114;9.388;2023-07-24T07:16:06;4.80;;;3.10;;
19151;SDS011;9708;53.114;9.388;2023-07-24T07:18:33;3.60;;;3.30;;
19151;SDS011;9708;53.114;9.388;2023-07-24T07:21:00;3.88;;;2.78;;
19151;SDS011;9708;53.114;9.388;2023-07-24T07:23:27;3.67;;;2.97;;
19151;SDS011;9708;53.114;9.388;2023-07-24T07:25:54;4.45;;;3.50;;
19151;SDS011;9708;53.114;9.388;2023-07-24T07:28:22;8.88;;;5.10;;
19151;SDS011;9708;53.114;9.388;2023-07-24T07:30:49;8.73;;;5.00;;
19151;SDS011;9708;53.114;9.388;2023-07-24T07:33:16;4.65;;;3.75;;
19151;SDS011;9708;53.114;9.388;2023-07-24T07:35:42;4.90;;;3.70;;
19151;SDS011;9708;53.114;9.388;2023-07-24T07:38:09;6.22;;;3.75;;
19151;SDS011;9708;53.114;9.388;2023-07-24T07:40:36;7.93;;;5.30;;
19151;SDS011;9708;53.114;9.388;2023-07-24T07:43:04;9.27;;;5.57;;
19151;SDS011;9708;53.114;9.388;2023-07-24T07:45:32;5.50;;;4.07;;
19151;SDS011;9708;53.114;9.388;2023-07-24T07:47:59;6.63;;;4.35;;
19151;SDS011;9708;53.114;9.388;2023-07-24T07:50:26;6.20;;;4.13;;
19151;SDS011;9708;53.114;9.388;2023-07-24T07:52:53;7.65;;;4.22;;
19151;SDS011;9708;53.114;9.388;2023-07-24T07:55:20;7.45;;;4.90;;
19151;SDS011;9708;53.114;9.388;2023-07-24T07:57:47;5.72;;;4.13;;
19151;SDS011;9708;53.114;9.388;2023-07-24T08:00:14;5.63;;;3.72;;
19151;SDS011;9708;53.114;9.388;2023-07-24T08:02:42;4.88;;;3.85;;
19151;SDS011;9708;53.114;9.388;2023-07-24T08:05:10;5.25;;;3.30;;
19151;SDS011;9708;53.114;9.388;2023-07-24T08:07:37;5.45;;;3.83;;
19151;SDS011;9708;53.114;9.388;2023-07-24T08:10:04;4.90;;;3.72;;
19151;SDS011;9708;53.114;9.388;2023-07-24T08:12:31;9.88;;;5.22;;
19151;SDS011;9708;53.114;9.388;2023-07-24T08:14:58;7.25;;;4.75;;
19151;SDS011;9708;53.114;9.388;2023-07-24T08:17:25;7.28;;;5.75;;
19151;SDS011;9708;53.114;9.388;2023-07-24T08:19:53;9.68;;;5.60;;
19151;SDS011;9708;53.114;9.388;2023-07-24T08:22:20;8.82;;;4.85;;
19151;SDS011;9708;53.114;9.388;2023-07-24T08:24:47;6.82;;;5.03;;
19151;SDS011;9708;53.114;9.388;2023-07-24T08:27:15;6.05;;;4.40;;
19151;SDS011;9708;53.114;9.388;2023-07-24T08:29:42;5.80;;;4.70;;
19151;SDS011;9708;53.114;9.388;2023-07-24T08:32:09;8.80;;;4.05;;
19151;SDS011;9708;53.114;9.388;2023-07-24T08:34:35;4.65;;;4.00;;
19151;SDS011;9708;53.114;9.388;2023-07-24T08:37:04;7.70;;;3.47;;
19151;SDS011;9708;53.114;9.388;2023-07-24T08:39:31;6.07;;;3.17;;
19151;SDS011;9708;53.114;9.388;2023-07-24T08:41:58;4.95;;;3.17;;
19151;SDS011;9708;53.114;9.388;2023-07-24T08:44:25;2.63;;;2.42;;
19151;SDS011;9708;53.114;9.388;2023-07-24T08:46:56;4.30;;;3.00;;
19151;SDS011;9708;53.114;9.388;2023-07-24T08:49:23;3.28;;;2.55;;
19151;SDS011;9708;53.114;9.388;2023-07-24T08:51:50;2.85;;;2.30;;
19151;SDS011;9708;53.114;9.388;2023-07-24T08:54:19;2.92;;;2.45;;
19151;SDS011;9708;53.114;9.388;2023-07-24T08:56:47;2.83;;;2.20;;
19151;SDS011;9708;53.114;9.388;2023-07-24T08:59:15;3.00;;;2.38;;
19151;SDS011;9708;53.114;9.388;2023-07-24T09:01:42;3.80;;;2.67;;
19151;SDS011;9708;53.114;9.388;2023-07-24T09:04:09;2.92;;;2.53;;
19151;SDS011;9708;53.114;9.388;2023-07-24T09:06:36;3.58;;;2.58;;
19151;SDS011;9708;53.114;9.388;2023-07-24T09:09:11;3.50;;;2.72;;
19151;SDS011;9708;53.114;9.388;2023-07-24T09:11:46;2.63;;;2.42;;
19151;SDS011;9708;53.114;9.388;2023-07-24T09:14:19;3.95;;;2.80;;
19151;SDS011;9708;53.114;9.388;2023-07-24T09:16:47;3.78;;;3.00;;
19151;SDS011;9708;53.114;9.388;2023-07-24T09:19:17;4.82;;;3.30;;
19151;SDS011;9708;53.114;9.388;2023-07-24T09:21:44;3.42;;;2.90;;
19151;SDS011;9708;53.114;9.388;2023-07-24T09:24:11;8.43;;;3.60;;
19151;SDS011;9708;53.114;9.388;2023-07-24T09:26:49;4.47;;;3.47;;
19151;SDS011;9708;53.114;9.388;2023-07-24T09:29:17;6.00;;;3.80;;
19151;SDS011;9708;53.114;9.388;2023-07-24T09:31:43;4.95;;;3.55;;
19151;SDS011;9708;53.114;9.388;2023-07-24T09:34:14;5.05;;;3.13;;
19151;SDS011;9708;53.114;9.388;2023-07-24T09:36:41;5.32;;;3.40;;
19151;SDS011;9708;53.114;9.388;2023-07-24T09:39:09;14.15;;;7.32;;
19151;SDS011;9708;53.114;9.388;2023-07-24T09:41:36;6.72;;;5.15;;
19151;SDS011;9708;53.114;9.388;2023-07-24T09:44:05;5.65;;;3.80;;
19151;SDS011;9708;53.114;9.388;2023-07-24T09:46:32;5.07;;;3.35;;
19151;SDS011;9708;53.114;9.388;2023-07-24T09:48:59;5.18;;;3.67;;
19151;SDS011;9708;53.114;9.388;2023-07-24T09:51:28;5.15;;;3.60;;
19151;SDS011;9708;53.114;9.388;2023-07-24T09:53:58;3.58;;;2.78;;
19151;SDS011;9708;53.114;9.388;2023-07-24T09:56:32;4.32;;;3.30;;
19151;SDS011;9708;53.114;9.388;2023-07-24T09:59:00;3.72;;;2.75;;
19151;SDS011;9708;53.114;9.388;2023-07-24T10:01:30;2.90;;;2.20;;
19151;SDS011;9708;53.114;9.388;2023-07-24T10:03:58;2.92;;;2.72;;
19151;SDS011;9708;53.114;9.388;2023-07-24T10:06:26;3.22;;;2.60;;
19151;SDS011;9708;53.114;9.388;2023-07-24T10:08:54;4.93;;;3.05;;
19151;SDS011;9708;53.114;9.388;2023-07-24T10:11:21;4.18;;;2.95;;
19151;SDS011;9708;53.114;9.388;2023-07-24T10:13:49;3.17;;;2.47;;
19151;SDS011;9708;53.114;9.388;2023-07-24T10:16:17;3.42;;;2.67;;
19151;SDS011;9708;53.114;9.388;2023-07-24T10:18:46;3.65;;;2.42;;
19151;SDS011;9708;53.114;9.388;2023-07-24T10:21:13;2.92;;;2.15;;
19151;SDS011;9708;53.114;9.388;2023-07-24T10:23:41;3.10;;;2.15;;
19151;SDS011;9708;53.114;9.388;2023-07-24T10:26:09;2.28;;;2.05;;
19151;SDS011;9708;53.114;9.388;2023-07-24T10:28:36;4.43;;;3.13;;
19151;SDS011;9708;53.114;9.388;2023-07-24T10:31:04;2.75;;;1.95;;
19151;SDS011;9708;53.114;9.388;2023-07-24T10:33:35;1.73;;;1.63;;
19151;SDS011;9708;53.114;9.388;2023-07-24T10:36:11;2.47;;;1.85;;
19151;SDS011;9708;53.114;9.388;2023-07-24T10:38:39;2.22;;;1.98;;
19151;SDS011;9708;53.114;9.388;2023-07-24T10:41:08;2.40;;;1.92;;
19151;SDS011;9708;53.114;9.388;2023-07-24T10:43:43;2.35;;;1.65;;
19151;SDS011;9708;53.114;9.388;2023-07-24T10:46:11;1.25;;;1.10;;
19151;SDS011;9708;53.114;9.388;2023-07-24T10:48:41;2.05;;;1.60;;
19151;SDS011;9708;53.114;9.388;2023-07-24T10:51:09;1.92;;;1.73;;
19151;SDS011;9708;53.114;9.388;2023-07-24T10:53:41;1.58;;;1.48;;
19151;SDS011;9708;53.114;9.388;2023-07-24T10:56:08;2.72;;;1.50;;
19151;SDS011;9708;53.114;9.388;2023-07-24T10:58:35;1.42;;;1.33;;
19151;SDS011;9708;53.114;9.388;2023-07-24T11:01:03;1.67;;;1.58;;
19151;SDS011;9708;53.114;9.388;2023-07-24T11:03:31;1.63;;;1.52;;
19151;SDS011;9708;53.114;9.388;2023-07-24T11:05:58;1.85;;;1.48;;
19151;SDS011;9708;53.114;9.388;2023-07-24T11:08:25;1.63;;;1.40;;
19151;SDS011;9708;53.114;9.388;2023-07-24T11:10:54;1.40;;;1.30;;
19151;SDS011;9708;53.114;9.388;2023-07-24T11:13:23;2.13;;;1.60;;
19151;SDS011;9708;53.114;9.388;2023-07-24T11:15:51;1.00;;;1.00;;
19151;SDS011;9708;53.114;9.388;2023-07-24T11:18:18;1.77;;;1.23;;
19151;SDS011;9708;53.114;9.388;2023-07-24T11:20:47;1.98;;;1.70;;
19151;SDS011;9708;53.114;9.388;2023-07-24T11:23:16;1.38;;;1.27;;
19151;SDS011;9708;53.114;9.388;2023-07-24T11:25:43;2.35;;;2.08;;
19151;SDS011;9708;53.114;9.388;2023-07-24T11:28:12;1.20;;;1.10;;
19151;SDS011;9708;53.114;9.388;2023-07-24T11:30:40;1.85;;;1.30;;
19151;SDS011;9708;53.114;9.388;2023-07-24T11:33:09;1.35;;;1.25;;
19151;SDS011;9708;53.114;9.388;2023-07-24T11:35:36;1.55;;;1.30;;
19151;SDS011;9708;53.114;9.388;2023-07-24T11:38:04;1.63;;;1.35;;
19151;SDS011;9708;53.114;9.388;2023-07-24T11:40:32;2.28;;;1.58;;
19151;SDS011;9708;53.114;9.388;2023-07-24T11:43:00;1.30;;;1.20;;
19151;SDS011;9708;53.114;9.388;2023-07-24T11:45:29;1.83;;;1.48;;
19151;SDS011;9708;53.114;9.388;2023-07-24T11:47:57;1.73;;;1.55;;
19151;SDS011;9708;53.114;9.388;2023-07-24T11:50:24;2.67;;;1.38;;
19151;SDS011;9708;53.114;9.388;2023-07-24T11:52:51;2.25;;;1.60;;
19151;SDS011;9708;53.114;9.388;2023-07-24T11:55:19;1.88;;;1.65;;
19151;SDS011;9708;53.114;9.388;2023-07-24T11:57:56;1.88;;;1.70;;
19151;SDS011;9708;53.114;9.388;2023-07-24T12:00:24;2.70;;;2.08;;
19151;SDS011;9708;53.114;9.388;2023-07-24T12:02:53;2.22;;;1.75;;
19151;SDS011;9708;53.114;9.388;2023-07-24T12:05:24;3.45;;;2.15;;
19151;SDS011;9708;53.114;9.388;2023-07-24T12:07:53;3.47;;;2.25;;
19151;SDS011;9708;53.114;9.388;2023-07-24T12:10:25;2.42;;;2.20;;
19151;SDS011;9708;53.114;9.388;2023-07-24T12:12:52;1.80;;;1.70;;
19151;SDS011;9708;53.114;9.388;2023-07-24T12:15:19;3.05;;;2.00;;
19151;SDS011;9708;53.114;9.388;2023-07-24T12:17:46;2.80;;;2.05;;
19151;SDS011;9708;53.114;9.388;2023-07-24T12:20:14;6.53;;;2.88;;
19151;SDS011;9708;53.114;9.388;2023-07-24T12:22:40;3.00;;;2.17;;
19151;SDS011;9708;53.114;9.388;2023-07-24T12:25:09;2.50;;;2.10;;
19151;SDS011;9708;53.114;9.388;2023-07-24T12:27:36;2.90;;;2.40;;
19151;SDS011;9708;53.114;9.388;2023-07-24T12:30:05;4.57;;;2.50;;
19151;SDS011;9708;53.114;9.388;2023-07-24T12:32:32;2.10;;;1.90;;
19151;SDS011;9708;53.114;9.388;2023-07-24T12:34:59;3.88;;;2.20;;
19151;SDS011;9708;53.114;9.388;2023-07-24T12:37:27;5.43;;;2.13;;
19151;SDS011;9708;53.114;9.388;2023-07-24T12:39:54;10.05;;;2.65;;
19151;SDS011;9708;53.114;9.388;2023-07-24T12:42:21;1.88;;;1.70;;
19151;SDS011;9708;53.114;9.388;2023-07-24T12:44:48;2.05;;;1.85;;
19151;SDS011;9708;53.114;9.388;2023-07-24T12:47:15;2.95;;;2.30;;
19151;SDS011;9708;53.114;9.388;2023-07-24T12:49:42;7.78;;;2.28;;
19151;SDS011;9708;53.114;9.388;2023-07-24T12:52:09;1.80;;;1.70;;
19151;SDS011;9708;53.114;9.388;2023-07-24T12:54:37;2.13;;;1.90;;
19151;SDS011;9708;53.114;9.388;2023-07-24T12:57:04;2.33;;;1.95;;
19151;SDS011;9708;53.114;9.388;2023-07-24T12:59:31;2.05;;;1.67;;
19151;SDS011;9708;53.114;9.388;2023-07-24T13:01:58;2.53;;;1.63;;
19151;SDS011;9708;53.114;9.388;2023-07-24T13:04:25;2.30;;;1.88;;
19151;SDS011;9708;53.114;9.388;2023-07-24T13:06:52;2.20;;;2.00;;
19151;SDS011;9708;53.114;9.388;2023-07-24T13:09:19;1.73;;;1.63;;
19151;SDS011;9708;53.114;9.388;2023-07-24T13:11:47;3.63;;;2.67;;
19151;SDS011;9708;53.114;9.388;2023-07-24T13:14:16;2.95;;;1.90;;
19151;SDS011;9708;53.114;9.388;2023-07-24T13:16:43;2.45;;;2.25;;
19151;SDS011;9708;53.114;9.388;2023-07-24T13:19:10;2.33;;;1.88;;
19151;SDS011;9708;53.114;9.388;2023-07-24T13:21:36;3.35;;;2.15;;
19151;SDS011;9708;53.114;9.388;2023-07-24T13:24:04;3.90;;;2.58;;
19151;SDS011;9708;53.114;9.388;2023-07-24T13:26:31;2.17;;;1.98;;
19151;SDS011;9708;53.114;9.388;2023-07-24T13:28:59;2.00;;;1.80;;
19151;SDS011;9708;53.114;9.388;2023-07-24T13:31:26;3.60;;;2.05;;
19151;SDS011;9708;53.114;9.388;2023-07-24T13:33:54;1.90;;;1.70;;
19151;SDS011;9708;53.114;9.388;2023-07-24T13:36:21;2.67;;;2.25;;
19151;SDS011;9708;53.114;9.388;2023-07-24T13:38:47;3.45;;;1.88;;
19151;SDS011;9708;53.114;9.388;2023-07-24T13:41:15;3.47;;;2.10;;
19151;SDS011;9708;53.114;9.388;2023-07-24T13:43:42;2.20;;;1.90;;
19151;SDS011;9708;53.114;9.388;2023-07-24T13:46:10;2.75;;;2.05;;
19151;SDS011;9708;53.114;9.388;2023-07-24T13:48:37;2.35;;;1.92;;
19151;SDS011;9708;53.114;9.388;2023-07-24T13:51:03;2.60;;;2.10;;
19151;SDS011;9708;53.114;9.388;2023-07-24T13:53:30;4.15;;;2.30;;
19151;SDS011;9708;53.114;9.388;2023-07-24T13:55:57;2.85;;;2.00;;
19151;SDS011;9708;53.114;9.388;2023-07-24T13:58:24;3.50;;;2.50;;
19151;SDS011;9708;53.114;9.388;2023-07-24T14:00:50;3.95;;;2.35;;
19151;SDS011;9708;53.114;9.388;2023-07-24T14:03:18;2.15;;;1.85;;
19151;SDS011;9708;53.114;9.388;2023-07-24T14:05:45;2.15;;;1.85;;
19151;SDS011;9708;53.114;9.388;2023-07-24T14:08:12;2.33;;;2.10;;
19151;SDS011;9708;53.114;9.388;2023-07-24T14:10:39;2.75;;;2.30;;
19151;SDS011;9708;53.114;9.388;2023-07-24T14:13:05;2.95;;;1.90;;
19151;SDS011;9708;53.114;9.388;2023-07-24T14:15:32;2.35;;;1.52;;
19151;SDS011;9708;53.114;9.388;2023-07-24T14:17:59;2.13;;;1.92;;
19151;SDS011;9708;53.114;9.388;2023-07-24T14:20:27;2.58;;;1.70;;
19151;SDS011;9708;53.114;9.388;2023-07-24T14:22:54;3.40;;;1.70;;
19151;SDS011;9708;53.114;9.388;2023-07-24T14:25:20;2.38;;;1.90;;
19151;SDS011;9708;53.114;9.388;2023-07-24T14:27:47;2.00;;;1.70;;
19151;SDS011;9708;53.114;9.388;2023-07-24T14:30:14;2.20;;;1.70;;
19151;SDS011;9708;53.114;9.388;2023-07-24T14:32:41;2.20;;;1.88;;
19151;SDS011;9708;53.114;9.388;2023-07-24T14:35:08;3.30;;;1.90;;
19151;SDS011;9708;53.114;9.388;2023-07-24T14:37:36;2.33;;;1.60;;
19151;SDS011;9708;53.114;9.388;2023-07-24T14:40:03;2.95;;;1.77;;
19151;SDS011;9708;53.114;9.388;2023-07-24T14:42:30;3.30;;;1.77;;
19151;SDS011;9708;53.114;9.388;2023-07-24T14:44:57;1.80;;;1.42;;
19151;SDS011;9708;53.114;9.388;2023-07-24T14:47:27;3.50;;;1.90;;
19151;SDS011;9708;53.114;9.388;2023-07-24T14:49:54;2.60;;;1.98;;
19151;SDS011;9708;53.114;9.388;2023-07-24T14:52:21;14.38;;;8.52;;
19151;SDS011;9708;53.114;9.388;2023-07-24T14:54:49;5.55;;;3.17;;
19151;SDS011;9708;53.114;9.388;2023-07-24T14:57:16;2.63;;;1.80;;
19151;SDS011;9708;53.114;9.388;2023-07-24T14:59:43;3.83;;;1.80;;
19151;SDS011;9708;53.114;9.388;2023-07-24T15:02:09;2.50;;;1.80;;